sensor_id;sensor_type;location;lat;lon;timestamp;P1;durP1;ratioP1;P2;durP2;ratioP2
76155;SDS011;64906;51.290;7.348;2023-07-22T00:00:14;9.23;;;5.67;;
76155;SDS011;64906;51.290;7.348;2023-07-22T00:02:40;8.63;;;5.40;;
76155;SDS011;64906;51.290;7.348;2023-07-22T00:05:06;8.63;;;5.30;;
76155;SDS011;64906;51.290;7.348;2023-07-22T00:07:32;10.93;;;5.55;;
76155;SDS011;64906;51.290;7.348;2023-07-22T00:09:58;8.55;;;5.10;;
76155;SDS011;64906;51.290;7.348;2023-07-22T00:12:24;9.18;;;5.03;;
76155;SDS011;64906;51.290;7.348;2023-07-22T00:14:51;8.55;;;4.97;;
76155;SDS011;64906;51.290;7.348;2023-07-22T00:17:16;10.55;;;5.10;;
76155;SDS011;64906;51.290;7.348;2023-07-22T00:19:42;8.47;;;5.10;;
76155;SDS011;64906;51.290;7.348;2023-07-22T00:22:07;8.37;;;4.80;;
76155;SDS011;64906;51.290;7.348;2023-07-22T00:24:32;9.40;;;4.53;;
76155;SDS011;64906;51.290;7.348;2023-07-22T00:26:58;8.85;;;5.00;;
76155;SDS011;64906;51.290;7.348;2023-07-22T00:29:23;7.22;;;4.43;;
76155;SDS011;64906;51.290;7.348;2023-07-22T00:31:49;9.63;;;5.17;;
76155;SDS011;64906;51.290;7.348;2023-07-22T00:34:14;8.23;;;4.90;;
76155;SDS011;64906;51.290;7.348;2023-07-22T00:36:39;8.13;;;4.68;;
76155;SDS011;64906;51.290;7.348;2023-07-22T00:39:05;7.88;;;4.82;;
76155;SDS011;64906;51.290;7.348;2023-07-22T00:41:30;7.28;;;4.57;;
76155;SDS011;64906;51.290;7.348;2023-07-22T00:43:56;7.85;;;5.22;;
76155;SDS011;64906;51.290;7.348;2023-07-22T00:46:22;7.50;;;4.85;;
76155;SDS011;64906;51.290;7.348;2023-07-22T00:48:47;10.02;;;6.45;;
76155;SDS011;64906;51.290;7.348;2023-07-22T00:51:14;10.93;;;6.13;;
76155;SDS011;64906;51.290;7.348;2023-07-22T00:53:40;10.02;;;5.75;;
76155;SDS011;64906;51.290;7.348;2023-07-22T00:56:05;13.30;;;7.80;;
76155;SDS011;64906;51.290;7.348;2023-07-22T00:58:31;12.85;;;7.45;;
76155;SDS011;64906;51.290;7.348;2023-07-22T01:00:57;11.82;;;7.38;;
76155;SDS011;64906;51.290;7.348;2023-07-22T01:03:22;12.40;;;7.47;;
76155;SDS011;64906;51.290;7.348;2023-07-22T01:05:47;11.52;;;6.90;;
76155;SDS011;64906;51.290;7.348;2023-07-22T01:08:14;10.93;;;6.63;;
76155;SDS011;64906;51.290;7.348;2023-07-22T01:10:39;10.23;;;6.07;;
76155;SDS011;64906;51.290;7.348;2023-07-22T01:13:05;11.15;;;6.57;;
76155;SDS011;64906;51.290;7.348;2023-07-22T01:15:30;11.10;;;6.38;;
76155;SDS011;64906;51.290;7.348;2023-07-22T01:17:56;10.50;;;6.50;;
76155;SDS011;64906;51.290;7.348;2023-07-22T01:20:26;10.68;;;6.20;;
76155;SDS011;64906;51.290;7.348;2023-07-22T01:22:53;11.95;;;7.22;;
76155;SDS011;64906;51.290;7.348;2023-07-22T01:25:19;11.65;;;6.40;;
76155;SDS011;64906;51.290;7.348;2023-07-22T01:27:46;10.20;;;5.60;;
76155;SDS011;64906;51.290;7.348;2023-07-22T01:30:12;10.63;;;6.03;;
76155;SDS011;64906;51.290;7.348;2023-07-22T01:32:39;9.60;;;5.63;;
76155;SDS011;64906;51.290;7.348;2023-07-22T01:35:04;11.38;;;6.05;;
76155;SDS011;64906;51.290;7.348;2023-07-22T01:37:30;9.32;;;5.68;;
76155;SDS011;64906;51.290;7.348;2023-07-22T01:39:56;10.48;;;5.82;;
76155;SDS011;64906;51.290;7.348;2023-07-22T01:42:22;8.98;;;5.57;;
76155;SDS011;64906;51.290;7.348;2023-07-22T01:44:48;10.02;;;5.63;;
76155;SDS011;64906;51.290;7.348;2023-07-22T01:47:13;9.40;;;5.68;;
76155;SDS011;64906;51.290;7.348;2023-07-22T01:49:38;9.43;;;5.43;;
76155;SDS011;64906;51.290;7.348;2023-07-22T01:52:04;8.63;;;5.03;;
76155;SDS011;64906;51.290;7.348;2023-07-22T01:54:30;8.10;;;5.20;;
76155;SDS011;64906;51.290;7.348;2023-07-22T01:56:55;9.53;;;5.27;;
76155;SDS011;64906;51.290;7.348;2023-07-22T01:59:21;9.83;;;5.43;;
76155;SDS011;64906;51.290;7.348;2023-07-22T02:01:46;7.80;;;5.07;;
76155;SDS011;64906;51.290;7.348;2023-07-22T02:04:12;8.85;;;5.07;;
76155;SDS011;64906;51.290;7.348;2023-07-22T02:06:38;8.18;;;4.95;;
76155;SDS011;64906;51.290;7.348;2023-07-22T02:09:03;9.40;;;5.40;;
76155;SDS011;64906;51.290;7.348;2023-07-22T02:11:33;10.43;;;5.07;;
76155;SDS011;64906;51.290;7.348;2023-07-22T02:14:02;8.77;;;5.20;;
76155;SDS011;64906;51.290;7.348;2023-07-22T02:16:31;10.30;;;5.13;;
76155;SDS011;64906;51.290;7.348;2023-07-22T02:19:03;8.43;;;5.28;;
76155;SDS011;64906;51.290;7.348;2023-07-22T02:21:29;6.78;;;4.55;;
76155;SDS011;64906;51.290;7.348;2023-07-22T02:23:54;7.50;;;4.82;;
76155;SDS011;64906;51.290;7.348;2023-07-22T02:26:20;8.15;;;5.00;;
76155;SDS011;64906;51.290;7.348;2023-07-22T02:28:45;9.67;;;4.63;;
76155;SDS011;64906;51.290;7.348;2023-07-22T02:31:11;9.13;;;4.78;;
76155;SDS011;64906;51.290;7.348;2023-07-22T02:33:37;8.73;;;4.93;;
76155;SDS011;64906;51.290;7.348;2023-07-22T02:36:03;8.82;;;4.88;;
76155;SDS011;64906;51.290;7.348;2023-07-22T02:38:28;7.90;;;4.78;;
76155;SDS011;64906;51.290;7.348;2023-07-22T02:40:54;7.78;;;4.82;;
76155;SDS011;64906;51.290;7.348;2023-07-22T02:43:19;8.50;;;4.50;;
76155;SDS011;64906;51.290;7.348;2023-07-22T02:45:45;9.30;;;4.80;;
76155;SDS011;64906;51.290;7.348;2023-07-22T02:48:10;7.30;;;4.50;;
76155;SDS011;64906;51.290;7.348;2023-07-22T02:50:35;7.97;;;4.47;;
76155;SDS011;64906;51.290;7.348;2023-07-22T02:53:01;7.88;;;4.75;;
76155;SDS011;64906;51.290;7.348;2023-07-22T02:55:27;8.02;;;4.80;;
76155;SDS011;64906;51.290;7.348;2023-07-22T02:57:53;8.48;;;5.15;;
76155;SDS011;64906;51.290;7.348;2023-07-22T03:00:19;8.90;;;4.90;;
76155;SDS011;64906;51.290;7.348;2023-07-22T03:02:51;7.38;;;4.45;;
76155;SDS011;64906;51.290;7.348;2023-07-22T03:05:27;7.03;;;4.32;;
76155;SDS011;64906;51.290;7.348;2023-07-22T03:07:53;7.50;;;4.43;;
76155;SDS011;64906;51.290;7.348;2023-07-22T03:10:19;8.93;;;4.60;;
76155;SDS011;64906;51.290;7.348;2023-07-22T03:12:44;7.13;;;3.90;;
76155;SDS011;64906;51.290;7.348;2023-07-22T03:15:09;8.15;;;4.90;;
76155;SDS011;64906;51.290;7.348;2023-07-22T03:17:38;8.93;;;4.68;;
76155;SDS011;64906;51.290;7.348;2023-07-22T03:20:04;6.82;;;3.95;;
76155;SDS011;64906;51.290;7.348;2023-07-22T03:25:00;8.77;;;4.57;;
76155;SDS011;64906;51.290;7.348;2023-07-22T03:27:26;8.37;;;4.87;;
76155;SDS011;64906;51.290;7.348;2023-07-22T03:29:52;7.72;;;4.75;;
76155;SDS011;64906;51.290;7.348;2023-07-22T03:32:17;9.90;;;5.10;;
76155;SDS011;64906;51.290;7.348;2023-07-22T03:34:43;9.88;;;4.70;;
76155;SDS011;64906;51.290;7.348;2023-07-22T03:37:08;7.27;;;4.70;;
76155;SDS011;64906;51.290;7.348;2023-07-22T03:39:34;7.95;;;4.55;;
76155;SDS011;64906;51.290;7.348;2023-07-22T03:42:00;8.07;;;4.75;;
76155;SDS011;64906;51.290;7.348;2023-07-22T03:44:25;7.87;;;4.83;;
76155;SDS011;64906;51.290;7.348;2023-07-22T03:46:51;9.73;;;5.10;;
76155;SDS011;64906;51.290;7.348;2023-07-22T03:49:16;7.03;;;4.40;;
76155;SDS011;64906;51.290;7.348;2023-07-22T03:51:41;9.90;;;4.70;;
76155;SDS011;64906;51.290;7.348;2023-07-22T03:54:07;10.80;;;4.90;;
76155;SDS011;64906;51.290;7.348;2023-07-22T03:56:32;8.80;;;5.20;;
76155;SDS011;64906;51.290;7.348;2023-07-22T03:58:57;9.13;;;4.93;;
76155;SDS011;64906;51.290;7.348;2023-07-22T04:01:23;7.77;;;4.67;;
76155;SDS011;64906;51.290;7.348;2023-07-22T04:03:48;8.40;;;4.82;;
76155;SDS011;64906;51.290;7.348;2023-07-22T04:06:13;8.87;;;5.23;;
76155;SDS011;64906;51.290;7.348;2023-07-22T04:08:39;8.00;;;4.85;;
76155;SDS011;64906;51.290;7.348;2023-07-22T04:11:04;9.13;;;4.63;;
76155;SDS011;64906;51.290;7.348;2023-07-22T04:13:29;7.87;;;4.80;;
76155;SDS011;64906;51.290;7.348;2023-07-22T04:15:54;7.87;;;4.47;;
76155;SDS011;64906;51.290;7.348;2023-07-22T04:18:20;8.20;;;4.83;;
76155;SDS011;64906;51.290;7.348;2023-07-22T04:20:46;7.32;;;4.47;;
76155;SDS011;64906;51.290;7.348;2023-07-22T04:23:13;8.82;;;4.75;;
76155;SDS011;64906;51.290;7.348;2023-07-22T04:25:42;8.73;;;4.75;;
76155;SDS011;64906;51.290;7.348;2023-07-22T04:28:08;8.02;;;4.50;;
76155;SDS011;64906;51.290;7.348;2023-07-22T04:30:34;7.97;;;4.30;;
76155;SDS011;64906;51.290;7.348;2023-07-22T04:33:00;8.30;;;5.15;;
76155;SDS011;64906;51.290;7.348;2023-07-22T04:35:25;8.95;;;4.90;;
76155;SDS011;64906;51.290;7.348;2023-07-22T04:37:51;8.60;;;4.30;;
76155;SDS011;64906;51.290;7.348;2023-07-22T04:40:16;7.93;;;4.23;;
76155;SDS011;64906;51.290;7.348;2023-07-22T04:42:43;8.32;;;4.70;;
76155;SDS011;64906;51.290;7.348;2023-07-22T04:45:09;9.18;;;4.93;;
76155;SDS011;64906;51.290;7.348;2023-07-22T04:47:36;6.88;;;4.82;;
76155;SDS011;64906;51.290;7.348;2023-07-22T04:50:02;7.93;;;4.57;;
76155;SDS011;64906;51.290;7.348;2023-07-22T04:52:29;8.77;;;4.90;;
76155;SDS011;64906;51.290;7.348;2023-07-22T04:54:54;9.17;;;4.70;;
76155;SDS011;64906;51.290;7.348;2023-07-22T04:57:20;8.07;;;5.20;;
76155;SDS011;64906;51.290;7.348;2023-07-22T04:59:46;9.00;;;4.63;;
76155;SDS011;64906;51.290;7.348;2023-07-22T05:02:12;7.00;;;4.27;;
76155;SDS011;64906;51.290;7.348;2023-07-22T05:04:37;7.53;;;4.65;;
76155;SDS011;64906;51.290;7.348;2023-07-22T05:07:02;9.57;;;4.83;;
76155;SDS011;64906;51.290;7.348;2023-07-22T05:09:28;8.27;;;4.75;;
76155;SDS011;64906;51.290;7.348;2023-07-22T05:11:53;9.33;;;5.13;;
76155;SDS011;64906;51.290;7.348;2023-07-22T05:14:18;8.47;;;4.67;;
76155;SDS011;64906;51.290;7.348;2023-07-22T05:16:45;7.90;;;4.53;;
76155;SDS011;64906;51.290;7.348;2023-07-22T05:19:10;8.77;;;4.80;;
76155;SDS011;64906;51.290;7.348;2023-07-22T05:21:36;8.30;;;4.83;;
76155;SDS011;64906;51.290;7.348;2023-07-22T05:24:01;7.78;;;4.70;;
76155;SDS011;64906;51.290;7.348;2023-07-22T05:26:26;8.68;;;4.97;;
76155;SDS011;64906;51.290;7.348;2023-07-22T05:28:51;7.37;;;4.53;;
76155;SDS011;64906;51.290;7.348;2023-07-22T05:31:17;9.47;;;4.63;;
76155;SDS011;64906;51.290;7.348;2023-07-22T05:33:42;7.72;;;4.70;;
76155;SDS011;64906;51.290;7.348;2023-07-22T05:36:08;7.47;;;5.10;;
76155;SDS011;64906;51.290;7.348;2023-07-22T05:38:33;8.90;;;4.57;;
76155;SDS011;64906;51.290;7.348;2023-07-22T05:40:58;7.20;;;4.70;;
76155;SDS011;64906;51.290;7.348;2023-07-22T05:43:24;8.38;;;4.43;;
76155;SDS011;64906;51.290;7.348;2023-07-22T05:45:49;7.93;;;4.60;;
76155;SDS011;64906;51.290;7.348;2023-07-22T05:48:14;8.05;;;4.88;;
76155;SDS011;64906;51.290;7.348;2023-07-22T05:50:40;8.13;;;4.85;;
76155;SDS011;64906;51.290;7.348;2023-07-22T05:53:06;9.38;;;4.85;;
76155;SDS011;64906;51.290;7.348;2023-07-22T05:55:31;8.15;;;4.93;;
76155;SDS011;64906;51.290;7.348;2023-07-22T05:57:57;9.17;;;4.87;;
76155;SDS011;64906;51.290;7.348;2023-07-22T06:00:22;6.93;;;4.47;;
76155;SDS011;64906;51.290;7.348;2023-07-22T06:02:48;8.27;;;4.60;;
76155;SDS011;64906;51.290;7.348;2023-07-22T06:05:13;7.80;;;5.10;;
76155;SDS011;64906;51.290;7.348;2023-07-22T06:07:39;9.32;;;4.70;;
76155;SDS011;64906;51.290;7.348;2023-07-22T06:10:04;8.07;;;4.90;;
76155;SDS011;64906;51.290;7.348;2023-07-22T06:12:30;7.65;;;4.38;;
76155;SDS011;64906;51.290;7.348;2023-07-22T06:14:56;7.83;;;4.30;;
76155;SDS011;64906;51.290;7.348;2023-07-22T06:17:21;8.40;;;4.67;;
76155;SDS011;64906;51.290;7.348;2023-07-22T06:19:46;8.50;;;4.43;;
76155;SDS011;64906;51.290;7.348;2023-07-22T06:22:12;7.88;;;4.43;;
76155;SDS011;64906;51.290;7.348;2023-07-22T06:24:37;7.63;;;4.70;;
76155;SDS011;64906;51.290;7.348;2023-07-22T06:27:02;8.63;;;4.43;;
76155;SDS011;64906;51.290;7.348;2023-07-22T06:29:29;8.88;;;4.43;;
76155;SDS011;64906;51.290;7.348;2023-07-22T06:31:54;6.67;;;4.20;;
76155;SDS011;64906;51.290;7.348;2023-07-22T06:34:19;7.73;;;4.67;;
76155;SDS011;64906;51.290;7.348;2023-07-22T06:36:45;8.47;;;4.67;;
76155;SDS011;64906;51.290;7.348;2023-07-22T06:39:10;8.45;;;4.78;;
76155;SDS011;64906;51.290;7.348;2023-07-22T06:41:35;8.73;;;5.00;;
76155;SDS011;64906;51.290;7.348;2023-07-22T06:44:01;7.93;;;4.40;;
76155;SDS011;64906;51.290;7.348;2023-07-22T06:46:26;6.90;;;4.40;;
76155;SDS011;64906;51.290;7.348;2023-07-22T06:48:51;7.87;;;4.70;;
76155;SDS011;64906;51.290;7.348;2023-07-22T06:51:16;9.52;;;4.70;;
76155;SDS011;64906;51.290;7.348;2023-07-22T06:53:42;8.63;;;5.13;;
76155;SDS011;64906;51.290;7.348;2023-07-22T06:56:07;6.30;;;4.37;;
76155;SDS011;64906;51.290;7.348;2023-07-22T06:58:32;8.30;;;4.70;;
76155;SDS011;64906;51.290;7.348;2023-07-22T07:00:58;7.55;;;4.82;;
76155;SDS011;64906;51.290;7.348;2023-07-22T07:03:23;7.05;;;4.57;;
76155;SDS011;64906;51.290;7.348;2023-07-22T07:05:54;7.80;;;4.87;;
76155;SDS011;64906;51.290;7.348;2023-07-22T07:08:21;10.15;;;4.82;;
76155;SDS011;64906;51.290;7.348;2023-07-22T07:10:48;7.97;;;4.50;;
76155;SDS011;64906;51.290;7.348;2023-07-22T07:13:14;8.77;;;4.93;;
76155;SDS011;64906;51.290;7.348;2023-07-22T07:15:39;8.90;;;4.38;;
76155;SDS011;64906;51.290;7.348;2023-07-22T07:18:05;8.05;;;4.55;;
76155;SDS011;64906;51.290;7.348;2023-07-22T07:20:30;7.70;;;4.88;;
76155;SDS011;64906;51.290;7.348;2023-07-22T07:22:55;8.10;;;4.80;;
76155;SDS011;64906;51.290;7.348;2023-07-22T07:25:21;8.17;;;4.57;;
76155;SDS011;64906;51.290;7.348;2023-07-22T07:27:46;8.70;;;4.82;;
76155;SDS011;64906;51.290;7.348;2023-07-22T07:30:12;7.55;;;4.40;;
76155;SDS011;64906;51.290;7.348;2023-07-22T07:32:37;6.90;;;4.40;;
76155;SDS011;64906;51.290;7.348;2023-07-22T07:35:02;7.00;;;4.47;;
76155;SDS011;64906;51.290;7.348;2023-07-22T07:37:29;7.40;;;4.65;;
76155;SDS011;64906;51.290;7.348;2023-07-22T07:39:54;7.65;;;4.53;;
76155;SDS011;64906;51.290;7.348;2023-07-22T07:42:24;9.55;;;5.05;;
76155;SDS011;64906;51.290;7.348;2023-07-22T07:44:53;7.65;;;4.57;;
76155;SDS011;64906;51.290;7.348;2023-07-22T07:47:18;8.05;;;4.63;;
76155;SDS011;64906;51.290;7.348;2023-07-22T07:49:43;8.87;;;4.57;;
76155;SDS011;64906;51.290;7.348;2023-07-22T07:52:09;8.13;;;4.50;;
76155;SDS011;64906;51.290;7.348;2023-07-22T07:54:34;7.87;;;4.53;;
76155;SDS011;64906;51.290;7.348;2023-07-22T07:57:00;7.35;;;4.05;;
76155;SDS011;64906;51.290;7.348;2023-07-22T07:59:25;9.13;;;4.60;;
76155;SDS011;64906;51.290;7.348;2023-07-22T08:01:50;7.50;;;4.38;;
76155;SDS011;64906;51.290;7.348;2023-07-22T08:04:16;8.27;;;4.43;;
76155;SDS011;64906;51.290;7.348;2023-07-22T08:06:42;7.60;;;4.30;;
76155;SDS011;64906;51.290;7.348;2023-07-22T08:09:08;6.72;;;4.05;;
76155;SDS011;64906;51.290;7.348;2023-07-22T08:11:36;7.07;;;4.20;;
76155;SDS011;64906;51.290;7.348;2023-07-22T08:14:03;8.50;;;4.57;;
76155;SDS011;64906;51.290;7.348;2023-07-22T08:16:30;8.15;;;4.45;;
76155;SDS011;64906;51.290;7.348;2023-07-22T08:18:55;8.73;;;4.53;;
76155;SDS011;64906;51.290;7.348;2023-07-22T08:21:21;6.27;;;4.00;;
76155;SDS011;64906;51.290;7.348;2023-07-22T08:23:46;7.23;;;4.27;;
76155;SDS011;64906;51.290;7.348;2023-07-22T08:26:12;7.10;;;4.35;;
76155;SDS011;64906;51.290;7.348;2023-07-22T08:28:38;7.25;;;4.18;;
76155;SDS011;64906;51.290;7.348;2023-07-22T08:31:03;6.57;;;4.07;;
76155;SDS011;64906;51.290;7.348;2023-07-22T08:33:30;7.57;;;4.25;;
76155;SDS011;64906;51.290;7.348;2023-07-22T08:35:56;8.13;;;4.50;;
76155;SDS011;64906;51.290;7.348;2023-07-22T08:38:21;7.53;;;4.13;;
76155;SDS011;64906;51.290;7.348;2023-07-22T08:40:48;7.38;;;4.28;;
76155;SDS011;64906;51.290;7.348;2023-07-22T08:43:19;7.93;;;4.22;;
76155;SDS011;64906;51.290;7.348;2023-07-22T08:45:46;5.70;;;3.70;;
76155;SDS011;64906;51.290;7.348;2023-07-22T08:48:13;7.10;;;4.38;;
76155;SDS011;64906;51.290;7.348;2023-07-22T08:53:16;17.25;;;9.13;;
76155;SDS011;64906;51.290;7.348;2023-07-22T08:55:44;15.68;;;9.52;;
76155;SDS011;64906;51.290;7.348;2023-07-22T08:58:10;26.02;;;15.38;;
76155;SDS011;64906;51.290;7.348;2023-07-22T09:00:36;28.45;;;17.02;;
76155;SDS011;64906;51.290;7.348;2023-07-22T09:03:03;29.95;;;17.73;;
76155;SDS011;64906;51.290;7.348;2023-07-22T09:05:30;76.93;;;45.95;;
76155;SDS011;64906;51.290;7.348;2023-07-22T09:07:57;89.53;;;50.58;;
76155;SDS011;64906;51.290;7.348;2023-07-22T09:10:24;97.40;;;58.10;;
76155;SDS011;64906;51.290;7.348;2023-07-22T09:12:52;86.05;;;50.95;;
76155;SDS011;64906;51.290;7.348;2023-07-22T09:15:17;95.15;;;55.45;;
76155;SDS011;64906;51.290;7.348;2023-07-22T09:17:43;90.85;;;54.85;;
76155;SDS011;64906;51.290;7.348;2023-07-22T09:20:09;84.30;;;49.97;;
76155;SDS011;64906;51.290;7.348;2023-07-22T09:22:39;83.07;;;47.13;;
76155;SDS011;64906;51.290;7.348;2023-07-22T09:28:09;88.68;;;55.25;;
76155;SDS011;64906;51.290;7.348;2023-07-22T09:30:37;126.32;;;75.25;;
76155;SDS011;64906;51.290;7.348;2023-07-22T09:33:04;124.28;;;77.15;;
76155;SDS011;64906;51.290;7.348;2023-07-22T09:35:51;119.45;;;71.35;;
76155;SDS011;64906;51.290;7.348;2023-07-22T09:38:25;124.60;;;72.82;;
76155;SDS011;64906;51.290;7.348;2023-07-22T09:40:51;114.38;;;67.05;;
76155;SDS011;64906;51.290;7.348;2023-07-22T09:43:17;105.75;;;64.50;;
76155;SDS011;64906;51.290;7.348;2023-07-22T09:45:46;98.77;;;60.00;;
76155;SDS011;64906;51.290;7.348;2023-07-22T09:48:12;91.10;;;54.35;;
76155;SDS011;64906;51.290;7.348;2023-07-22T09:50:38;82.77;;;48.33;;
76155;SDS011;64906;51.290;7.348;2023-07-22T09:53:03;75.38;;;46.33;;
76155;SDS011;64906;51.290;7.348;2023-07-22T09:55:30;79.85;;;49.97;;
76155;SDS011;64906;51.290;7.348;2023-07-22T09:57:57;100.63;;;62.47;;
76155;SDS011;64906;51.290;7.348;2023-07-22T10:00:27;103.40;;;64.63;;
76155;SDS011;64906;51.290;7.348;2023-07-22T10:02:55;113.53;;;69.40;;
76155;SDS011;64906;51.290;7.348;2023-07-22T10:05:22;115.32;;;74.65;;
76155;SDS011;64906;51.290;7.348;2023-07-22T10:07:49;108.28;;;70.13;;
76155;SDS011;64906;51.290;7.348;2023-07-22T10:10:17;102.60;;;65.90;;
76155;SDS011;64906;51.290;7.348;2023-07-22T10:12:44;90.03;;;59.63;;
76155;SDS011;64906;51.290;7.348;2023-07-22T10:15:11;82.55;;;54.28;;
76155;SDS011;64906;51.290;7.348;2023-07-22T10:17:41;69.40;;;44.72;;
76155;SDS011;64906;51.290;7.348;2023-07-22T10:20:08;66.38;;;41.70;;
76155;SDS011;64906;51.290;7.348;2023-07-22T10:22:40;69.47;;;41.92;;
76155;SDS011;64906;51.290;7.348;2023-07-22T10:25:06;71.00;;;46.72;;
76155;SDS011;64906;51.290;7.348;2023-07-22T10:27:35;82.03;;;52.67;;
76155;SDS011;64906;51.290;7.348;2023-07-22T10:30:01;87.78;;;58.15;;
76155;SDS011;64906;51.290;7.348;2023-07-22T10:32:43;79.03;;;55.78;;
76155;SDS011;64906;51.290;7.348;2023-07-22T10:35:12;73.32;;;49.83;;
76155;SDS011;64906;51.290;7.348;2023-07-22T10:37:48;66.68;;;44.92;;
76155;SDS011;64906;51.290;7.348;2023-07-22T10:43:09;68.30;;;44.70;;
76155;SDS011;64906;51.290;7.348;2023-07-22T10:45:48;57.83;;;39.28;;
76155;SDS011;64906;51.290;7.348;2023-07-22T10:48:15;45.42;;;28.88;;
76155;SDS011;64906;51.290;7.348;2023-07-22T10:50:41;46.63;;;30.97;;
76155;SDS011;64906;51.290;7.348;2023-07-22T10:56:05;29.48;;;19.60;;
76155;SDS011;64906;51.290;7.348;2023-07-22T11:06:32;34.80;;;20.73;;
76155;SDS011;64906;51.290;7.348;2023-07-22T11:08:58;46.85;;;28.10;;
76155;SDS011;64906;51.290;7.348;2023-07-22T11:11:40;47.03;;;28.88;;
76155;SDS011;64906;51.290;7.348;2023-07-22T11:14:20;55.13;;;32.78;;
76155;SDS011;64906;51.290;7.348;2023-07-22T11:16:46;51.42;;;31.92;;
76155;SDS011;64906;51.290;7.348;2023-07-22T11:19:16;51.33;;;33.05;;
76155;SDS011;64906;51.290;7.348;2023-07-22T11:21:43;44.15;;;28.25;;
76155;SDS011;64906;51.290;7.348;2023-07-22T11:24:09;47.90;;;27.63;;
76155;SDS011;64906;51.290;7.348;2023-07-22T11:26:34;40.78;;;24.70;;
76155;SDS011;64906;51.290;7.348;2023-07-22T11:29:02;36.58;;;23.40;;
76155;SDS011;64906;51.290;7.348;2023-07-22T11:31:32;33.92;;;21.30;;
76155;SDS011;64906;51.290;7.348;2023-07-22T11:33:58;34.08;;;20.27;;
76155;SDS011;64906;51.290;7.348;2023-07-22T11:36:25;27.23;;;17.17;;
76155;SDS011;64906;51.290;7.348;2023-07-22T11:38:53;27.90;;;17.85;;
76155;SDS011;64906;51.290;7.348;2023-07-22T11:41:20;24.52;;;13.80;;
76155;SDS011;64906;51.290;7.348;2023-07-22T11:43:46;20.92;;;12.20;;
76155;SDS011;64906;51.290;7.348;2023-07-22T11:46:11;25.08;;;14.27;;
76155;SDS011;64906;51.290;7.348;2023-07-22T11:48:36;17.53;;;11.40;;
76155;SDS011;64906;51.290;7.348;2023-07-22T11:51:02;18.65;;;10.20;;
76155;SDS011;64906;51.290;7.348;2023-07-22T11:53:27;14.07;;;8.65;;
76155;SDS011;64906;51.290;7.348;2023-07-22T11:55:56;19.05;;;10.73;;
76155;SDS011;64906;51.290;7.348;2023-07-22T11:58:24;15.35;;;8.63;;
76155;SDS011;64906;51.290;7.348;2023-07-22T12:01:11;16.63;;;9.57;;
76155;SDS011;64906;51.290;7.348;2023-07-22T12:03:36;15.20;;;9.40;;
76155;SDS011;64906;51.290;7.348;2023-07-22T12:06:02;13.53;;;8.60;;
76155;SDS011;64906;51.290;7.348;2023-07-22T12:08:28;18.95;;;12.75;;
76155;SDS011;64906;51.290;7.348;2023-07-22T12:10:59;22.75;;;12.82;;
76155;SDS011;64906;51.290;7.348;2023-07-22T12:16:03;32.08;;;17.92;;
76155;SDS011;64906;51.290;7.348;2023-07-22T12:18:44;27.38;;;17.35;;
76155;SDS011;64906;51.290;7.348;2023-07-22T12:21:10;30.02;;;16.75;;
76155;SDS011;64906;51.290;7.348;2023-07-22T12:23:36;24.55;;;15.07;;
76155;SDS011;64906;51.290;7.348;2023-07-22T12:26:03;24.05;;;14.50;;
76155;SDS011;64906;51.290;7.348;2023-07-22T12:28:29;21.35;;;12.65;;
76155;SDS011;64906;51.290;7.348;2023-07-22T12:30:54;27.30;;;14.23;;
76155;SDS011;64906;51.290;7.348;2023-07-22T12:33:22;22.30;;;12.57;;
76155;SDS011;64906;51.290;7.348;2023-07-22T12:35:47;16.88;;;11.23;;
76155;SDS011;64906;51.290;7.348;2023-07-22T12:38:13;22.10;;;11.50;;
76155;SDS011;64906;51.290;7.348;2023-07-22T12:40:38;19.40;;;11.63;;
76155;SDS011;64906;51.290;7.348;2023-07-22T12:43:03;18.80;;;12.03;;
76155;SDS011;64906;51.290;7.348;2023-07-22T12:45:29;18.50;;;11.60;;
76155;SDS011;64906;51.290;7.348;2023-07-22T12:47:54;17.17;;;10.93;;
76155;SDS011;64906;51.290;7.348;2023-07-22T12:50:20;15.70;;;8.80;;
76155;SDS011;64906;51.290;7.348;2023-07-22T12:52:45;15.50;;;8.80;;
76155;SDS011;64906;51.290;7.348;2023-07-22T12:55:10;13.33;;;8.77;;
76155;SDS011;64906;51.290;7.348;2023-07-22T12:57:35;16.80;;;8.70;;
76155;SDS011;64906;51.290;7.348;2023-07-22T13:00:01;14.07;;;9.33;;
76155;SDS011;64906;51.290;7.348;2023-07-22T13:02:29;15.40;;;8.20;;
76155;SDS011;64906;51.290;7.348;2023-07-22T13:04:54;12.80;;;7.80;;
76155;SDS011;64906;51.290;7.348;2023-07-22T13:07:20;11.88;;;7.25;;
76155;SDS011;64906;51.290;7.348;2023-07-22T13:09:45;12.63;;;7.63;;
76155;SDS011;64906;51.290;7.348;2023-07-22T13:12:12;13.00;;;7.40;;
76155;SDS011;64906;51.290;7.348;2023-07-22T13:14:37;14.27;;;7.37;;
76155;SDS011;64906;51.290;7.348;2023-07-22T13:17:03;12.00;;;7.23;;
76155;SDS011;64906;51.290;7.348;2023-07-22T13:19:28;13.30;;;7.05;;
76155;SDS011;64906;51.290;7.348;2023-07-22T13:21:53;12.67;;;7.33;;
76155;SDS011;64906;51.290;7.348;2023-07-22T13:24:20;13.37;;;7.33;;
76155;SDS011;64906;51.290;7.348;2023-07-22T13:26:46;11.88;;;7.43;;
76155;SDS011;64906;51.290;7.348;2023-07-22T13:29:11;12.80;;;7.20;;
76155;SDS011;64906;51.290;7.348;2023-07-22T13:31:36;11.80;;;7.13;;
76155;SDS011;64906;51.290;7.348;2023-07-22T13:34:02;11.53;;;7.03;;
76155;SDS011;64906;51.290;7.348;2023-07-22T13:36:27;11.57;;;7.00;;
76155;SDS011;64906;51.290;7.348;2023-07-22T13:38:52;12.33;;;7.43;;
76155;SDS011;64906;51.290;7.348;2023-07-22T13:41:18;14.20;;;8.00;;
76155;SDS011;64906;51.290;7.348;2023-07-22T13:43:44;10.60;;;6.68;;
76155;SDS011;64906;51.290;7.348;2023-07-22T13:46:10;12.13;;;7.95;;
76155;SDS011;64906;51.290;7.348;2023-07-22T13:48:35;15.10;;;7.95;;
76155;SDS011;64906;51.290;7.348;2023-07-22T13:51:00;13.07;;;8.23;;
76155;SDS011;64906;51.290;7.348;2023-07-22T13:53:26;12.73;;;8.40;;
76155;SDS011;64906;51.290;7.348;2023-07-22T13:55:51;13.33;;;8.53;;
76155;SDS011;64906;51.290;7.348;2023-07-22T13:58:16;17.17;;;10.03;;
76155;SDS011;64906;51.290;7.348;2023-07-22T14:00:42;14.57;;;9.67;;
76155;SDS011;64906;51.290;7.348;2023-07-22T14:03:07;16.07;;;9.33;;
76155;SDS011;64906;51.290;7.348;2023-07-22T14:05:32;15.23;;;9.13;;
76155;SDS011;64906;51.290;7.348;2023-07-22T14:07:58;14.95;;;9.07;;
76155;SDS011;64906;51.290;7.348;2023-07-22T14:10:23;15.80;;;9.50;;
76155;SDS011;64906;51.290;7.348;2023-07-22T14:12:48;14.30;;;8.73;;
76155;SDS011;64906;51.290;7.348;2023-07-22T14:15:14;13.67;;;8.97;;
76155;SDS011;64906;51.290;7.348;2023-07-22T14:17:39;14.82;;;9.45;;
76155;SDS011;64906;51.290;7.348;2023-07-22T14:20:04;15.23;;;9.18;;
76155;SDS011;64906;51.290;7.348;2023-07-22T14:22:32;15.70;;;9.13;;
76155;SDS011;64906;51.290;7.348;2023-07-22T14:24:57;14.80;;;9.75;;
76155;SDS011;64906;51.290;7.348;2023-07-22T14:27:22;15.53;;;9.33;;
76155;SDS011;64906;51.290;7.348;2023-07-22T14:29:48;14.57;;;8.67;;
76155;SDS011;64906;51.290;7.348;2023-07-22T14:32:13;16.97;;;9.53;;
76155;SDS011;64906;51.290;7.348;2023-07-22T14:34:41;13.93;;;8.65;;
76155;SDS011;64906;51.290;7.348;2023-07-22T14:37:06;15.07;;;9.02;;
76155;SDS011;64906;51.290;7.348;2023-07-22T14:39:32;14.77;;;8.27;;
76155;SDS011;64906;51.290;7.348;2023-07-22T14:41:57;16.15;;;9.05;;
76155;SDS011;64906;51.290;7.348;2023-07-22T14:44:22;16.63;;;8.50;;
76155;SDS011;64906;51.290;7.348;2023-07-22T14:46:48;15.13;;;8.77;;
76155;SDS011;64906;51.290;7.348;2023-07-22T14:49:13;15.47;;;9.00;;
76155;SDS011;64906;51.290;7.348;2023-07-22T14:51:38;13.03;;;7.47;;
76155;SDS011;64906;51.290;7.348;2023-07-22T14:54:04;12.27;;;7.25;;
76155;SDS011;64906;51.290;7.348;2023-07-22T14:56:30;13.45;;;6.97;;